<?xml version="1.0" encoding="UTF-8" standalone="no" ?>
<gpx xmlns="http://www.topografix.com/GPX/1/1" xmlns:xsi="http://www.w3.org/2001/XMLSchema-instance" xsi:schemaLocation="http://www.topografix.com/GPX/1/1 http://www.topografix.com/GPX/1/1/gpx.xsd" version="1.1" creator="VisuGPX - https://www.visugpx.com">
  <metadata>
    <name>Île de la Platière - Circuit N°3</name>
    <desc><![CDATA["La plaine alluviale, histoire d’eau, histoire d’hommes...", circuit au départ de l'aire de stationnement de l'Île de la Platière]]></desc>
  </metadata>
  <trk>
    <name><![CDATA[Platiere-Circuit N°3]]></name>
    <trkseg>
      <trkpt lat="45.35311" lon="4.78139">
        <ele>139.995</ele>
        <time>2017-09-04T11:38:43Z</time>
      </trkpt>
      <trkpt lat="45.3534" lon="4.78126">
        <ele>139.912</ele>
        <time>2017-09-04T11:38:57Z</time>
      </trkpt>
      <trkpt lat="45.35361" lon="4.78116">
        <ele>140.031</ele>
        <time>2017-09-04T11:39:21Z</time>
      </trkpt>
      <trkpt lat="45.35374" lon="4.78111">
        <ele>140.283</ele>
        <time>2017-09-04T11:39:32Z</time>
      </trkpt>
      <trkpt lat="45.35397" lon="4.78101">
        <ele>140.403</ele>
        <time>2017-09-04T11:39:51Z</time>
      </trkpt>
      <trkpt lat="45.35405" lon="4.78098">
        <ele>140.366</ele>
        <time>2017-09-04T11:40:06Z</time>
      </trkpt>
      <trkpt lat="45.35417" lon="4.78092">
        <ele>140.57</ele>
        <time>2017-09-04T11:40:18Z</time>
      </trkpt>
      <trkpt lat="45.35433" lon="4.78086">
        <ele>140.984</ele>
        <time>2017-09-04T11:40:37Z</time>
      </trkpt>
      <trkpt lat="45.35396" lon="4.78113">
        <ele>141.291</ele>
        <time>2017-09-04T11:40:58Z</time>
      </trkpt>
      <trkpt lat="45.35388" lon="4.78117">
        <ele>140.821</ele>
        <time>2017-09-04T11:41:43Z</time>
      </trkpt>
      <trkpt lat="45.35357" lon="4.78129">
        <ele>140.64</ele>
        <time>2017-09-04T11:42:08Z</time>
      </trkpt>
      <trkpt lat="45.35319" lon="4.78146">
        <ele>141.236</ele>
        <time>2017-09-04T11:42:37Z</time>
      </trkpt>
      <trkpt lat="45.35307" lon="4.78176">
        <ele>141.394</ele>
        <time>2017-09-04T11:42:56Z</time>
      </trkpt>
      <trkpt lat="45.3529" lon="4.78203">
        <ele>141.237</ele>
        <time>2017-09-04T11:43:19Z</time>
      </trkpt>
      <trkpt lat="45.35285" lon="4.78227">
        <ele>145.418</ele>
        <time>2017-09-04T11:43:48Z</time>
      </trkpt>
      <trkpt lat="45.35277" lon="4.7823">
        <ele>145.681</ele>
        <time>2017-09-04T11:44:46Z</time>
      </trkpt>
      <trkpt lat="45.3525" lon="4.78238">
        <ele>145.526</ele>
        <time>2017-09-04T11:45:09Z</time>
      </trkpt>
      <trkpt lat="45.35224" lon="4.78244">
        <ele>145.842</ele>
        <time>2017-09-04T11:45:30Z</time>
      </trkpt>
      <trkpt lat="45.35191" lon="4.78251">
        <ele>145.752</ele>
        <time>2017-09-04T11:45:57Z</time>
      </trkpt>
      <trkpt lat="45.3516" lon="4.78256">
        <ele>145.515</ele>
        <time>2017-09-04T11:46:22Z</time>
      </trkpt>
      <trkpt lat="45.35123" lon="4.78261">
        <ele>144.772</ele>
        <time>2017-09-04T11:46:51Z</time>
      </trkpt>
      <trkpt lat="45.35091" lon="4.78265">
        <ele>145.501</ele>
        <time>2017-09-04T11:47:16Z</time>
      </trkpt>
      <trkpt lat="45.35058" lon="4.78269">
        <ele>145.438</ele>
        <time>2017-09-04T11:47:43Z</time>
      </trkpt>
      <trkpt lat="45.35033" lon="4.78295">
        <ele>145.172</ele>
        <time>2017-09-04T11:48:04Z</time>
      </trkpt>
      <trkpt lat="45.35" lon="4.78299">
        <ele>144.851</ele>
        <time>2017-09-04T11:48:30Z</time>
      </trkpt>
      <trkpt lat="45.34978" lon="4.783">
        <ele>145.296</ele>
        <time>2017-09-04T11:48:48Z</time>
      </trkpt>
      <trkpt lat="45.34972" lon="4.78301">
        <ele>145.274</ele>
        <time>2017-09-04T11:48:53Z</time>
      </trkpt>
      <trkpt lat="45.34969" lon="4.78301">
        <ele>145.047</ele>
        <time>2017-09-04T11:48:56Z</time>
      </trkpt>
      <trkpt lat="45.34939" lon="4.78304">
        <ele>144.258</ele>
        <time>2017-09-04T11:49:20Z</time>
      </trkpt>
      <trkpt lat="45.34917" lon="4.78306">
        <ele>144.775</ele>
        <time>2017-09-04T11:49:44Z</time>
      </trkpt>
      <trkpt lat="45.34907" lon="4.78306">
        <ele>145.056</ele>
        <time>2017-09-04T11:49:46Z</time>
      </trkpt>
      <trkpt lat="45.34879" lon="4.78309">
        <ele>144.56</ele>
        <time>2017-09-04T11:50:10Z</time>
      </trkpt>
      <trkpt lat="45.3487" lon="4.7831">
        <ele>144.814</ele>
        <time>2017-09-04T11:50:21Z</time>
      </trkpt>
      <trkpt lat="45.34854" lon="4.78311">
        <ele>144.539</ele>
        <time>2017-09-04T11:50:42Z</time>
      </trkpt>
      <trkpt lat="45.34836" lon="4.78313">
        <ele>144.427</ele>
        <time>2017-09-04T11:50:59Z</time>
      </trkpt>
      <trkpt lat="45.34803" lon="4.78318">
        <ele>145.038</ele>
        <time>2017-09-04T11:51:25Z</time>
      </trkpt>
      <trkpt lat="45.34776" lon="4.78323">
        <ele>144.483</ele>
        <time>2017-09-04T11:51:47Z</time>
      </trkpt>
      <trkpt lat="45.34759" lon="4.78325">
        <ele>144.405</ele>
        <time>2017-09-04T11:52:00Z</time>
      </trkpt>
      <trkpt lat="45.34736" lon="4.78328">
        <ele>144.286</ele>
        <time>2017-09-04T11:52:17Z</time>
      </trkpt>
      <trkpt lat="45.34711" lon="4.78332">
        <ele>143.869</ele>
        <time>2017-09-04T11:52:37Z</time>
      </trkpt>
      <trkpt lat="45.34674" lon="4.78339">
        <ele>144.035</ele>
        <time>2017-09-04T11:53:05Z</time>
      </trkpt>
      <trkpt lat="45.34631" lon="4.78347">
        <ele>143.625</ele>
        <time>2017-09-04T11:53:40Z</time>
      </trkpt>
      <trkpt lat="45.3459" lon="4.78354">
        <ele>143.511</ele>
        <time>2017-09-04T11:54:12Z</time>
      </trkpt>
      <trkpt lat="45.34551" lon="4.7836">
        <ele>143.38</ele>
        <time>2017-09-04T11:54:43Z</time>
      </trkpt>
      <trkpt lat="45.34517" lon="4.78365">
        <ele>143.443</ele>
        <time>2017-09-04T11:55:10Z</time>
      </trkpt>
      <trkpt lat="45.34479" lon="4.78372">
        <ele>143.315</ele>
        <time>2017-09-04T11:55:40Z</time>
      </trkpt>
      <trkpt lat="45.34448" lon="4.78377">
        <ele>143.346</ele>
        <time>2017-09-04T11:56:05Z</time>
      </trkpt>
      <trkpt lat="45.34418" lon="4.78383">
        <ele>143.311</ele>
        <time>2017-09-04T11:56:32Z</time>
      </trkpt>
      <trkpt lat="45.344" lon="4.78386">
        <ele>143.165</ele>
        <time>2017-09-04T11:56:49Z</time>
      </trkpt>
      <trkpt lat="45.34374" lon="4.7839">
        <ele>142.793</ele>
        <time>2017-09-04T11:57:13Z</time>
      </trkpt>
      <trkpt lat="45.34341" lon="4.78396">
        <ele>142.823</ele>
        <time>2017-09-04T11:57:40Z</time>
      </trkpt>
      <trkpt lat="45.34315" lon="4.784">
        <ele>143.215</ele>
        <time>2017-09-04T11:58:05Z</time>
      </trkpt>
      <trkpt lat="45.3428" lon="4.78406">
        <ele>143.338</ele>
        <time>2017-09-04T11:58:30Z</time>
      </trkpt>
      <trkpt lat="45.34252" lon="4.78411">
        <ele>143.163</ele>
        <time>2017-09-04T11:58:55Z</time>
      </trkpt>
      <trkpt lat="45.34242" lon="4.78413">
        <ele>142.907</ele>
        <time>2017-09-04T11:59:06Z</time>
      </trkpt>
      <trkpt lat="45.3423" lon="4.78415">
        <ele>143.021</ele>
        <time>2017-09-04T11:59:11Z</time>
      </trkpt>
      <trkpt lat="45.34192" lon="4.78421">
        <ele>142.779</ele>
        <time>2017-09-04T11:59:40Z</time>
      </trkpt>
      <trkpt lat="45.34191" lon="4.78421">
        <ele>142.549</ele>
        <time>2017-09-04T11:59:42Z</time>
      </trkpt>
      <trkpt lat="45.34158" lon="4.78427">
        <ele>142.876</ele>
        <time>2017-09-04T12:00:09Z</time>
      </trkpt>
      <trkpt lat="45.34128" lon="4.78432">
        <ele>142.566</ele>
        <time>2017-09-04T12:00:34Z</time>
      </trkpt>
      <trkpt lat="45.34103" lon="4.78436">
        <ele>142.643</ele>
        <time>2017-09-04T12:00:53Z</time>
      </trkpt>
      <trkpt lat="45.3408" lon="4.7844">
        <ele>142.727</ele>
        <time>2017-09-04T12:01:14Z</time>
      </trkpt>
      <trkpt lat="45.34049" lon="4.78425">
        <ele>141.709</ele>
        <time>2017-09-04T12:02:14Z</time>
      </trkpt>
      <trkpt lat="45.34052" lon="4.78411">
        <ele>138.974</ele>
        <time>2017-09-04T12:02:35Z</time>
      </trkpt>
      <trkpt lat="45.34059" lon="4.78371">
        <ele>137.52</ele>
        <time>2017-09-04T12:02:48Z</time>
      </trkpt>
      <trkpt lat="45.34085" lon="4.78344">
        <ele>137.099</ele>
        <time>2017-09-04T12:03:13Z</time>
      </trkpt>
      <trkpt lat="45.34111" lon="4.78339">
        <ele>136.618</ele>
        <time>2017-09-04T12:03:32Z</time>
      </trkpt>
      <trkpt lat="45.34137" lon="4.78335">
        <ele>136.472</ele>
        <time>2017-09-04T12:03:53Z</time>
      </trkpt>
      <trkpt lat="45.34143" lon="4.78334">
        <ele>136.462</ele>
        <time>2017-09-04T12:04:03Z</time>
      </trkpt>
      <trkpt lat="45.34156" lon="4.78317">
        <ele>136.946</ele>
        <time>2017-09-04T12:04:07Z</time>
      </trkpt>
      <trkpt lat="45.34173" lon="4.78321">
        <ele>136.643</ele>
        <time>2017-09-04T12:04:25Z</time>
      </trkpt>
      <trkpt lat="45.34209" lon="4.78316">
        <ele>136.386</ele>
        <time>2017-09-04T12:04:52Z</time>
      </trkpt>
      <trkpt lat="45.34242" lon="4.78311">
        <ele>136.363</ele>
        <time>2017-09-04T12:05:18Z</time>
      </trkpt>
      <trkpt lat="45.3427" lon="4.78306">
        <ele>136.452</ele>
        <time>2017-09-04T12:05:40Z</time>
      </trkpt>
      <trkpt lat="45.34277" lon="4.78305">
        <ele>136.332</ele>
        <time>2017-09-04T12:05:57Z</time>
      </trkpt>
      <trkpt lat="45.34282" lon="4.78304">
        <ele>136.71</ele>
        <time>2017-09-04T12:06:02Z</time>
      </trkpt>
      <trkpt lat="45.34285" lon="4.78296">
        <ele>136.25</ele>
        <time>2017-09-04T12:06:22Z</time>
      </trkpt>
      <trkpt lat="45.34275" lon="4.7829">
        <ele>134.276</ele>
        <time>2017-09-04T12:06:35Z</time>
      </trkpt>
      <trkpt lat="45.34263" lon="4.78288">
        <ele>133.538</ele>
        <time>2017-09-04T12:06:47Z</time>
      </trkpt>
      <trkpt lat="45.3425" lon="4.78287">
        <ele>133.828</ele>
        <time>2017-09-04T12:06:59Z</time>
      </trkpt>
      <trkpt lat="45.34242" lon="4.78284">
        <ele>133.836</ele>
        <time>2017-09-04T12:07:05Z</time>
      </trkpt>
      <trkpt lat="45.34226" lon="4.78286">
        <ele>133.474</ele>
        <time>2017-09-04T12:07:19Z</time>
      </trkpt>
      <trkpt lat="45.34216" lon="4.78291">
        <ele>133.404</ele>
        <time>2017-09-04T12:07:30Z</time>
      </trkpt>
      <trkpt lat="45.34206" lon="4.78289">
        <ele>133.021</ele>
        <time>2017-09-04T12:07:44Z</time>
      </trkpt>
      <trkpt lat="45.342" lon="4.78288">
        <ele>133.021</ele>
        <time>2017-09-04T12:07:59Z</time>
      </trkpt>
      <trkpt lat="45.34196" lon="4.78288">
        <ele>133.147</ele>
        <time>2017-09-04T12:08:16Z</time>
      </trkpt>
      <trkpt lat="45.34181" lon="4.78275">
        <ele>132.878</ele>
        <time>2017-09-04T12:08:31Z</time>
      </trkpt>
      <trkpt lat="45.34173" lon="4.78266">
        <ele>133.205</ele>
        <time>2017-09-04T12:08:45Z</time>
      </trkpt>
      <trkpt lat="45.34163" lon="4.78264">
        <ele>134.198</ele>
        <time>2017-09-04T12:08:55Z</time>
      </trkpt>
      <trkpt lat="45.34153" lon="4.78262">
        <ele>134.461</ele>
        <time>2017-09-04T12:09:07Z</time>
      </trkpt>
      <trkpt lat="45.34151" lon="4.7826">
        <ele>134.114</ele>
        <time>2017-09-04T12:10:10Z</time>
      </trkpt>
      <trkpt lat="45.3415" lon="4.78249">
        <ele>134.004</ele>
        <time>2017-09-04T12:10:20Z</time>
      </trkpt>
      <trkpt lat="45.34135" lon="4.78241">
        <ele>134.142</ele>
        <time>2017-09-04T12:10:37Z</time>
      </trkpt>
      <trkpt lat="45.34134" lon="4.78239">
        <ele>133.724</ele>
        <time>2017-09-04T12:10:55Z</time>
      </trkpt>
      <trkpt lat="45.34133" lon="4.78227">
        <ele>134.112</ele>
        <time>2017-09-04T12:11:06Z</time>
      </trkpt>
      <trkpt lat="45.34132" lon="4.78223">
        <ele>133.524</ele>
        <time>2017-09-04T12:11:08Z</time>
      </trkpt>
      <trkpt lat="45.34132" lon="4.78194">
        <ele>133.819</ele>
        <time>2017-09-04T12:11:27Z</time>
      </trkpt>
      <trkpt lat="45.34129" lon="4.78158">
        <ele>134.001</ele>
        <time>2017-09-04T12:11:49Z</time>
      </trkpt>
      <trkpt lat="45.34126" lon="4.78129">
        <ele>133.798</ele>
        <time>2017-09-04T12:12:08Z</time>
      </trkpt>
      <trkpt lat="45.34125" lon="4.78117">
        <ele>133.778</ele>
        <time>2017-09-04T12:12:15Z</time>
      </trkpt>
      <trkpt lat="45.34124" lon="4.78114">
        <ele>134.282</ele>
        <time>2017-09-04T12:12:17Z</time>
      </trkpt>
      <trkpt lat="45.3412" lon="4.78076">
        <ele>133.948</ele>
        <time>2017-09-04T12:12:40Z</time>
      </trkpt>
      <trkpt lat="45.34119" lon="4.78057">
        <ele>133.948</ele>
        <time>2017-09-04T12:12:56Z</time>
      </trkpt>
      <trkpt lat="45.34121" lon="4.78057">
        <ele>134.169</ele>
        <time>2017-09-04T12:12:58Z</time>
      </trkpt>
      <trkpt lat="45.34127" lon="4.78059">
        <ele>133.654</ele>
        <time>2017-09-04T12:13:04Z</time>
      </trkpt>
      <trkpt lat="45.34139" lon="4.78063">
        <ele>134.082</ele>
        <time>2017-09-04T12:13:15Z</time>
      </trkpt>
      <trkpt lat="45.34141" lon="4.78065">
        <ele>134.218</ele>
        <time>2017-09-04T12:13:18Z</time>
      </trkpt>
      <trkpt lat="45.34168" lon="4.78065">
        <ele>133.905</ele>
        <time>2017-09-04T12:13:41Z</time>
      </trkpt>
      <trkpt lat="45.34196" lon="4.78077">
        <ele>134.535</ele>
        <time>2017-09-04T12:14:05Z</time>
      </trkpt>
      <trkpt lat="45.34216" lon="4.78096">
        <ele>134.637</ele>
        <time>2017-09-04T12:14:26Z</time>
      </trkpt>
      <trkpt lat="45.34239" lon="4.78115">
        <ele>134.73</ele>
        <time>2017-09-04T12:14:47Z</time>
      </trkpt>
      <trkpt lat="45.34254" lon="4.78128">
        <ele>134.143</ele>
        <time>2017-09-04T12:15:04Z</time>
      </trkpt>
      <trkpt lat="45.34274" lon="4.78141">
        <ele>134.172</ele>
        <time>2017-09-04T12:15:22Z</time>
      </trkpt>
      <trkpt lat="45.34292" lon="4.78145">
        <ele>134.063</ele>
        <time>2017-09-04T12:15:38Z</time>
      </trkpt>
      <trkpt lat="45.34304" lon="4.78137">
        <ele>133.882</ele>
        <time>2017-09-04T12:15:52Z</time>
      </trkpt>
      <trkpt lat="45.34309" lon="4.78129">
        <ele>133.919</ele>
        <time>2017-09-04T12:16:05Z</time>
      </trkpt>
      <trkpt lat="45.34313" lon="4.78131">
        <ele>133.942</ele>
        <time>2017-09-04T12:16:23Z</time>
      </trkpt>
      <trkpt lat="45.34315" lon="4.7813">
        <ele>134.022</ele>
        <time>2017-09-04T12:16:41Z</time>
      </trkpt>
      <trkpt lat="45.34328" lon="4.78122">
        <ele>134.188</ele>
        <time>2017-09-04T12:17:00Z</time>
      </trkpt>
      <trkpt lat="45.34338" lon="4.78115">
        <ele>134.112</ele>
        <time>2017-09-04T12:17:19Z</time>
      </trkpt>
      <trkpt lat="45.34348" lon="4.78109">
        <ele>134.02</ele>
        <time>2017-09-04T12:17:32Z</time>
      </trkpt>
      <trkpt lat="45.34362" lon="4.78091">
        <ele>133.862</ele>
        <time>2017-09-04T12:17:49Z</time>
      </trkpt>
      <trkpt lat="45.34363" lon="4.78077">
        <ele>133.647</ele>
        <time>2017-09-04T12:18:07Z</time>
      </trkpt>
      <trkpt lat="45.34364" lon="4.78078">
        <ele>133.44</ele>
        <time>2017-09-04T12:19:07Z</time>
      </trkpt>
      <trkpt lat="45.34367" lon="4.78077">
        <ele>133.878</ele>
        <time>2017-09-04T12:19:10Z</time>
      </trkpt>
      <trkpt lat="45.34373" lon="4.7807">
        <ele>133.412</ele>
        <time>2017-09-04T12:19:17Z</time>
      </trkpt>
      <trkpt lat="45.34381" lon="4.78055">
        <ele>133.708</ele>
        <time>2017-09-04T12:19:30Z</time>
      </trkpt>
      <trkpt lat="45.34404" lon="4.78033">
        <ele>134.036</ele>
        <time>2017-09-04T12:19:53Z</time>
      </trkpt>
      <trkpt lat="45.34416" lon="4.78022">
        <ele>133.858</ele>
        <time>2017-09-04T12:20:14Z</time>
      </trkpt>
      <trkpt lat="45.34416" lon="4.78017">
        <ele>134.314</ele>
        <time>2017-09-04T12:20:58Z</time>
      </trkpt>
      <trkpt lat="45.34424" lon="4.78014">
        <ele>133.878</ele>
        <time>2017-09-04T12:21:28Z</time>
      </trkpt>
      <trkpt lat="45.34435" lon="4.77998">
        <ele>133.794</ele>
        <time>2017-09-04T12:21:46Z</time>
      </trkpt>
      <trkpt lat="45.34449" lon="4.77965">
        <ele>134.1</ele>
        <time>2017-09-04T12:22:09Z</time>
      </trkpt>
      <trkpt lat="45.34456" lon="4.77952">
        <ele>133.614</ele>
        <time>2017-09-04T12:22:25Z</time>
      </trkpt>
      <trkpt lat="45.34464" lon="4.77942">
        <ele>133.749</ele>
        <time>2017-09-04T12:22:38Z</time>
      </trkpt>
      <trkpt lat="45.34463" lon="4.77928">
        <ele>132.504</ele>
        <time>2017-09-04T12:22:54Z</time>
      </trkpt>
      <trkpt lat="45.3446" lon="4.77926">
        <ele>130.848</ele>
        <time>2017-09-04T12:23:08Z</time>
      </trkpt>
      <trkpt lat="45.34464" lon="4.77927">
        <ele>134.054</ele>
        <time>2017-09-04T12:30:23Z</time>
      </trkpt>
      <trkpt lat="45.34465" lon="4.77931">
        <ele>134.035</ele>
        <time>2017-09-04T12:30:33Z</time>
      </trkpt>
      <trkpt lat="45.34479" lon="4.77912">
        <ele>133.865</ele>
        <time>2017-09-04T12:30:50Z</time>
      </trkpt>
      <trkpt lat="45.34489" lon="4.77895">
        <ele>133.842</ele>
        <time>2017-09-04T12:31:03Z</time>
      </trkpt>
      <trkpt lat="45.34501" lon="4.77873">
        <ele>133.624</ele>
        <time>2017-09-04T12:31:24Z</time>
      </trkpt>
      <trkpt lat="45.34492" lon="4.77867">
        <ele>132.276</ele>
        <time>2017-09-04T12:32:28Z</time>
      </trkpt>
      <trkpt lat="45.34501" lon="4.77869">
        <ele>133.598</ele>
        <time>2017-09-04T12:32:38Z</time>
      </trkpt>
      <trkpt lat="45.34512" lon="4.77857">
        <ele>133.369</ele>
        <time>2017-09-04T12:32:51Z</time>
      </trkpt>
      <trkpt lat="45.34515" lon="4.77854">
        <ele>133.914</ele>
        <time>2017-09-04T12:32:54Z</time>
      </trkpt>
      <trkpt lat="45.34533" lon="4.77835">
        <ele>133.968</ele>
        <time>2017-09-04T12:33:13Z</time>
      </trkpt>
      <trkpt lat="45.34548" lon="4.77819">
        <ele>133.485</ele>
        <time>2017-09-04T12:33:30Z</time>
      </trkpt>
      <trkpt lat="45.34557" lon="4.77806">
        <ele>133.23</ele>
        <time>2017-09-04T12:33:45Z</time>
      </trkpt>
      <trkpt lat="45.3457" lon="4.77802">
        <ele>133.774</ele>
        <time>2017-09-04T12:34:01Z</time>
      </trkpt>
      <trkpt lat="45.34581" lon="4.778">
        <ele>133.102</ele>
        <time>2017-09-04T12:34:19Z</time>
      </trkpt>
      <trkpt lat="45.34584" lon="4.778">
        <ele>133.171</ele>
        <time>2017-09-04T12:34:37Z</time>
      </trkpt>
      <trkpt lat="45.34587" lon="4.77797">
        <ele>133.353</ele>
        <time>2017-09-04T12:34:40Z</time>
      </trkpt>
      <trkpt lat="45.34606" lon="4.77786">
        <ele>133.044</ele>
        <time>2017-09-04T12:34:55Z</time>
      </trkpt>
      <trkpt lat="45.34626" lon="4.77761">
        <ele>133.537</ele>
        <time>2017-09-04T12:35:16Z</time>
      </trkpt>
      <trkpt lat="45.34648" lon="4.77735">
        <ele>133.142</ele>
        <time>2017-09-04T12:35:39Z</time>
      </trkpt>
      <trkpt lat="45.34675" lon="4.77715">
        <ele>132.299</ele>
        <time>2017-09-04T12:36:03Z</time>
      </trkpt>
      <trkpt lat="45.34707" lon="4.77693">
        <ele>132.529</ele>
        <time>2017-09-04T12:36:34Z</time>
      </trkpt>
      <trkpt lat="45.34735" lon="4.77684">
        <ele>132.55</ele>
        <time>2017-09-04T12:36:58Z</time>
      </trkpt>
      <trkpt lat="45.34766" lon="4.77679">
        <ele>132.687</ele>
        <time>2017-09-04T12:37:25Z</time>
      </trkpt>
      <trkpt lat="45.34784" lon="4.77684">
        <ele>132.337</ele>
        <time>2017-09-04T12:37:40Z</time>
      </trkpt>
      <trkpt lat="45.3481" lon="4.77691">
        <ele>132.381</ele>
        <time>2017-09-04T12:38:02Z</time>
      </trkpt>
      <trkpt lat="45.34837" lon="4.77694">
        <ele>132.708</ele>
        <time>2017-09-04T12:38:25Z</time>
      </trkpt>
      <trkpt lat="45.34844" lon="4.77693">
        <ele>132.445</ele>
        <time>2017-09-04T12:38:35Z</time>
      </trkpt>
      <trkpt lat="45.34839" lon="4.77672">
        <ele>132.387</ele>
        <time>2017-09-04T12:38:50Z</time>
      </trkpt>
      <trkpt lat="45.34832" lon="4.77658">
        <ele>132.541</ele>
        <time>2017-09-04T12:39:05Z</time>
      </trkpt>
      <trkpt lat="45.3482" lon="4.77626">
        <ele>132.624</ele>
        <time>2017-09-04T12:39:24Z</time>
      </trkpt>
      <trkpt lat="45.34821" lon="4.77606">
        <ele>132.476</ele>
        <time>2017-09-04T12:39:38Z</time>
      </trkpt>
      <trkpt lat="45.34825" lon="4.77587">
        <ele>132.564</ele>
        <time>2017-09-04T12:39:53Z</time>
      </trkpt>
      <trkpt lat="45.34828" lon="4.77578">
        <ele>132.346</ele>
        <time>2017-09-04T12:39:59Z</time>
      </trkpt>
      <trkpt lat="45.34841" lon="4.77568">
        <ele>132.324</ele>
        <time>2017-09-04T12:40:11Z</time>
      </trkpt>
      <trkpt lat="45.34857" lon="4.77563">
        <ele>132.672</ele>
        <time>2017-09-04T12:40:27Z</time>
      </trkpt>
      <trkpt lat="45.34867" lon="4.77564">
        <ele>132.693</ele>
        <time>2017-09-04T12:41:13Z</time>
      </trkpt>
      <trkpt lat="45.34872" lon="4.77563">
        <ele>132.75</ele>
        <time>2017-09-04T12:41:50Z</time>
      </trkpt>
      <trkpt lat="45.34891" lon="4.77564">
        <ele>133.124</ele>
        <time>2017-09-04T12:42:06Z</time>
      </trkpt>
      <trkpt lat="45.34903" lon="4.77562">
        <ele>132.638</ele>
        <time>2017-09-04T12:42:18Z</time>
      </trkpt>
      <trkpt lat="45.34912" lon="4.7756">
        <ele>132.757</ele>
        <time>2017-09-04T12:42:29Z</time>
      </trkpt>
      <trkpt lat="45.34921" lon="4.77546">
        <ele>132.842</ele>
        <time>2017-09-04T12:42:44Z</time>
      </trkpt>
      <trkpt lat="45.34926" lon="4.7753">
        <ele>132.636</ele>
        <time>2017-09-04T12:42:57Z</time>
      </trkpt>
      <trkpt lat="45.34931" lon="4.77518">
        <ele>132.56</ele>
        <time>2017-09-04T12:43:04Z</time>
      </trkpt>
      <trkpt lat="45.34946" lon="4.775">
        <ele>132.54</ele>
        <time>2017-09-04T12:43:23Z</time>
      </trkpt>
      <trkpt lat="45.34957" lon="4.77491">
        <ele>132.438</ele>
        <time>2017-09-04T12:43:33Z</time>
      </trkpt>
      <trkpt lat="45.34962" lon="4.77483">
        <ele>132.466</ele>
        <time>2017-09-04T12:43:40Z</time>
      </trkpt>
      <trkpt lat="45.34982" lon="4.77478">
        <ele>132.734</ele>
        <time>2017-09-04T12:43:57Z</time>
      </trkpt>
      <trkpt lat="45.34991" lon="4.77484">
        <ele>132.832</ele>
        <time>2017-09-04T12:44:07Z</time>
      </trkpt>
      <trkpt lat="45.35" lon="4.775">
        <ele>132.835</ele>
        <time>2017-09-04T12:44:22Z</time>
      </trkpt>
      <trkpt lat="45.35007" lon="4.77506">
        <ele>133.082</ele>
        <time>2017-09-04T12:44:29Z</time>
      </trkpt>
      <trkpt lat="45.35022" lon="4.77513">
        <ele>132.988</ele>
        <time>2017-09-04T12:44:41Z</time>
      </trkpt>
      <trkpt lat="45.35027" lon="4.77513">
        <ele>133.329</ele>
        <time>2017-09-04T12:44:45Z</time>
      </trkpt>
      <trkpt lat="45.35039" lon="4.77512">
        <ele>133.615</ele>
        <time>2017-09-04T12:44:59Z</time>
      </trkpt>
      <trkpt lat="45.35042" lon="4.77512">
        <ele>133.211</ele>
        <time>2017-09-04T12:45:01Z</time>
      </trkpt>
      <trkpt lat="45.35047" lon="4.77512">
        <ele>133.3</ele>
        <time>2017-09-04T12:45:06Z</time>
      </trkpt>
      <trkpt lat="45.35059" lon="4.77509">
        <ele>133.257</ele>
        <time>2017-09-04T12:45:20Z</time>
      </trkpt>
      <trkpt lat="45.35073" lon="4.77508">
        <ele>132.889</ele>
        <time>2017-09-04T12:45:38Z</time>
      </trkpt>
      <trkpt lat="45.35091" lon="4.77505">
        <ele>133.19</ele>
        <time>2017-09-04T12:45:53Z</time>
      </trkpt>
      <trkpt lat="45.35101" lon="4.77504">
        <ele>133.258</ele>
        <time>2017-09-04T12:46:06Z</time>
      </trkpt>
      <trkpt lat="45.35107" lon="4.775">
        <ele>133.02</ele>
        <time>2017-09-04T12:46:21Z</time>
      </trkpt>
      <trkpt lat="45.35118" lon="4.77499">
        <ele>133.833</ele>
        <time>2017-09-04T12:47:43Z</time>
      </trkpt>
      <trkpt lat="45.35126" lon="4.77498">
        <ele>134.147</ele>
        <time>2017-09-04T12:47:56Z</time>
      </trkpt>
      <trkpt lat="45.35129" lon="4.77499">
        <ele>134.525</ele>
        <time>2017-09-04T12:48:29Z</time>
      </trkpt>
      <trkpt lat="45.35133" lon="4.77497">
        <ele>134.326</ele>
        <time>2017-09-04T12:48:44Z</time>
      </trkpt>
      <trkpt lat="45.35151" lon="4.77496">
        <ele>133.817</ele>
        <time>2017-09-04T12:49:00Z</time>
      </trkpt>
      <trkpt lat="45.35155" lon="4.77496">
        <ele>134.053</ele>
        <time>2017-09-04T12:49:13Z</time>
      </trkpt>
      <trkpt lat="45.35162" lon="4.77534">
        <ele>133.832</ele>
        <time>2017-09-04T12:49:41Z</time>
      </trkpt>
      <trkpt lat="45.35168" lon="4.77558">
        <ele>134.255</ele>
        <time>2017-09-04T12:49:57Z</time>
      </trkpt>
      <trkpt lat="45.35173" lon="4.77582">
        <ele>134.029</ele>
        <time>2017-09-04T12:50:11Z</time>
      </trkpt>
      <trkpt lat="45.35178" lon="4.77602">
        <ele>133.536</ele>
        <time>2017-09-04T12:50:23Z</time>
      </trkpt>
      <trkpt lat="45.35179" lon="4.77612">
        <ele>133.898</ele>
        <time>2017-09-04T12:50:29Z</time>
      </trkpt>
      <trkpt lat="45.3518" lon="4.77616">
        <ele>133.794</ele>
        <time>2017-09-04T12:50:31Z</time>
      </trkpt>
      <trkpt lat="45.35182" lon="4.77628">
        <ele>134.211</ele>
        <time>2017-09-04T12:50:41Z</time>
      </trkpt>
      <trkpt lat="45.35186" lon="4.77654">
        <ele>133.862</ele>
        <time>2017-09-04T12:50:57Z</time>
      </trkpt>
      <trkpt lat="45.35191" lon="4.77669">
        <ele>134.141</ele>
        <time>2017-09-04T12:51:07Z</time>
      </trkpt>
      <trkpt lat="45.35192" lon="4.77677">
        <ele>133.697</ele>
        <time>2017-09-04T12:51:25Z</time>
      </trkpt>
      <trkpt lat="45.3519" lon="4.77688">
        <ele>132.106</ele>
        <time>2017-09-04T12:51:37Z</time>
      </trkpt>
      <trkpt lat="45.35187" lon="4.7769">
        <ele>130.997</ele>
        <time>2017-09-04T12:51:55Z</time>
      </trkpt>
      <trkpt lat="45.35196" lon="4.77692">
        <ele>133.834</ele>
        <time>2017-09-04T12:52:12Z</time>
      </trkpt>
      <trkpt lat="45.35198" lon="4.77697">
        <ele>133.78</ele>
        <time>2017-09-04T12:52:16Z</time>
      </trkpt>
      <trkpt lat="45.35201" lon="4.77723">
        <ele>134.374</ele>
        <time>2017-09-04T12:52:33Z</time>
      </trkpt>
      <trkpt lat="45.35203" lon="4.77743">
        <ele>134.133</ele>
        <time>2017-09-04T12:52:44Z</time>
      </trkpt>
      <trkpt lat="45.35212" lon="4.7778">
        <ele>134.068</ele>
        <time>2017-09-04T12:53:06Z</time>
      </trkpt>
      <trkpt lat="45.35214" lon="4.77788">
        <ele>134.251</ele>
        <time>2017-09-04T12:53:11Z</time>
      </trkpt>
      <trkpt lat="45.35218" lon="4.77795">
        <ele>134.366</ele>
        <time>2017-09-04T12:53:16Z</time>
      </trkpt>
      <trkpt lat="45.35219" lon="4.77802">
        <ele>134.174</ele>
        <time>2017-09-04T12:53:21Z</time>
      </trkpt>
      <trkpt lat="45.3522" lon="4.77807">
        <ele>134.251</ele>
        <time>2017-09-04T12:53:24Z</time>
      </trkpt>
      <trkpt lat="45.35222" lon="4.77816">
        <ele>134.57</ele>
        <time>2017-09-04T12:53:29Z</time>
      </trkpt>
      <trkpt lat="45.35223" lon="4.77837">
        <ele>134.246</ele>
        <time>2017-09-04T12:53:42Z</time>
      </trkpt>
      <trkpt lat="45.35231" lon="4.77862">
        <ele>134.547</ele>
        <time>2017-09-04T12:53:57Z</time>
      </trkpt>
      <trkpt lat="45.35236" lon="4.77885">
        <ele>134.631</ele>
        <time>2017-09-04T12:54:10Z</time>
      </trkpt>
      <trkpt lat="45.35246" lon="4.77914">
        <ele>134.672</ele>
        <time>2017-09-04T12:54:26Z</time>
      </trkpt>
      <trkpt lat="45.35254" lon="4.7795">
        <ele>134.521</ele>
        <time>2017-09-04T12:54:48Z</time>
      </trkpt>
      <trkpt lat="45.35259" lon="4.7798">
        <ele>134.484</ele>
        <time>2017-09-04T12:55:04Z</time>
      </trkpt>
      <trkpt lat="45.35259" lon="4.77986">
        <ele>134.575</ele>
        <time>2017-09-04T12:55:08Z</time>
      </trkpt>
      <trkpt lat="45.35263" lon="4.78005">
        <ele>134.177</ele>
        <time>2017-09-04T12:55:20Z</time>
      </trkpt>
      <trkpt lat="45.35268" lon="4.78021">
        <ele>134.305</ele>
        <time>2017-09-04T12:55:29Z</time>
      </trkpt>
      <trkpt lat="45.35272" lon="4.78037">
        <ele>134.285</ele>
        <time>2017-09-04T12:55:47Z</time>
      </trkpt>
      <trkpt lat="45.35273" lon="4.78059">
        <ele>134.097</ele>
        <time>2017-09-04T12:56:36Z</time>
      </trkpt>
      <trkpt lat="45.3528" lon="4.7808">
        <ele>134.486</ele>
        <time>2017-09-04T12:56:50Z</time>
      </trkpt>
      <trkpt lat="45.35304" lon="4.78095">
        <ele>134.578</ele>
        <time>2017-09-04T12:57:12Z</time>
      </trkpt>
      <trkpt lat="45.3531" lon="4.78096">
        <ele>135.1</ele>
        <time>2017-09-04T12:57:17Z</time>
      </trkpt>
      <trkpt lat="45.35314" lon="4.78108">
        <ele>135.402</ele>
        <time>2017-09-04T12:57:30Z</time>
      </trkpt>
      <trkpt lat="45.35316" lon="4.78118">
        <ele>135.707</ele>
        <time>2017-09-04T12:57:50Z</time>
      </trkpt>
    </trkseg>
  </trk>
</gpx>